createdAt,value
2022-10-26T00:01:22.053Z,53.33
2022-10-26T00:03:50.028Z,53.76
2022-10-26T00:06:24.383Z,53.72
2022-10-26T00:08:55.668Z,53.48
2022-10-26T00:11:24.223Z,53.16
2022-10-26T00:13:52.170Z,53.30
2022-10-26T00:16:26.508Z,53.42
2022-10-26T00:18:54.180Z,53.34
2022-10-26T00:21:21.951Z,53.33
2022-10-26T00:23:49.769Z,53.17
2022-10-26T00:26:17.383Z,53.55
2022-10-26T00:28:45.057Z,53.31
2022-10-26T00:31:14.755Z,53.54
2022-10-26T00:33:42.638Z,53.43
2022-10-26T00:36:10.758Z,53.47
2022-10-26T00:38:38.711Z,53.48
2022-10-26T00:41:06.496Z,53.61
2022-10-26T00:43:36.996Z,53.11
2022-10-26T00:46:08.468Z,53.04
2022-10-26T00:48:41.423Z,53.49
2022-10-26T00:51:15.023Z,53.20
2022-10-26T00:53:44.788Z,53.68
2022-10-26T00:56:13.587Z,53.39
2022-10-26T00:58:41.416Z,53.39
2022-10-26T01:01:09.598Z,53.24
2022-10-26T01:03:38.292Z,53.02
2022-10-26T01:06:07.935Z,53.40
2022-10-26T01:08:35.659Z,53.48
2022-10-26T01:11:03.791Z,53.44
2022-10-26T01:13:34.209Z,53.65
2022-10-26T01:16:23.597Z,53.58
2022-10-26T01:19:09.079Z,53.50
2022-10-26T01:21:56.237Z,53.60
2022-10-26T01:24:47.768Z,53.44
2022-10-26T01:27:44.217Z,53.37
2022-10-26T01:30:37.172Z,53.56
2022-10-26T01:33:13.714Z,53.25
2022-10-26T01:35:54.823Z,53.54
2022-10-26T01:38:44.584Z,53.35
2022-10-26T01:41:24.042Z,53.35
2022-10-26T01:43:57.536Z,53.44
2022-10-26T01:46:27.479Z,53.12
2022-10-26T01:48:59.778Z,53.38
2022-10-26T01:51:29.813Z,53.41
2022-10-26T01:53:58.855Z,53.46
2022-10-26T01:56:30.848Z,53.15
2022-10-26T01:59:20.090Z,53.19
2022-10-26T02:01:53.764Z,53.31
2022-10-26T02:04:39.955Z,53.16
2022-10-26T02:07:15.483Z,53.20
2022-10-26T02:09:58.650Z,53.03
2022-10-26T02:12:26.563Z,53.03
2022-10-26T02:15:04.779Z,53.18
2022-10-26T02:17:49.783Z,53.05
2022-10-26T02:20:42.885Z,53.29
2022-10-26T02:23:12.304Z,53.38
2022-10-26T02:25:49.733Z,53.06
2022-10-26T02:28:25.658Z,53.07
2022-10-26T02:30:57.466Z,53.00
2022-10-26T02:33:28.698Z,53.25
2022-10-26T02:36:01.307Z,53.07
2022-10-26T02:38:32.312Z,53.31
2022-10-26T02:41:01.381Z,53.14
2022-10-26T02:43:33.077Z,53.02
2022-10-26T02:46:07.817Z,53.32
2022-10-26T02:48:38.567Z,52.86
2022-10-26T02:51:06.146Z,53.30
2022-10-26T02:54:03.383Z,53.07
2022-10-26T02:56:43.062Z,52.92
2022-10-26T02:59:13.022Z,53.09
2022-10-26T03:01:42.202Z,53.10
2022-10-26T03:04:10.134Z,53.02
2022-10-26T03:06:37.937Z,53.37
2022-10-26T03:09:05.735Z,53.08
2022-10-26T03:11:33.418Z,52.86
2022-10-26T03:14:01.191Z,53.05
2022-10-26T03:16:28.916Z,53.07
2022-10-26T03:18:56.606Z,53.22
2022-10-26T03:21:24.372Z,53.44
2022-10-26T03:23:52.125Z,53.00
2022-10-26T03:26:19.902Z,53.21
2022-10-26T03:28:47.529Z,53.14
2022-10-26T03:31:15.181Z,53.05
2022-10-26T03:33:43.212Z,53.23
2022-10-26T03:36:11.303Z,53.41
2022-10-26T03:38:39.132Z,53.15
2022-10-26T03:41:06.729Z,53.31
2022-10-26T03:43:34.404Z,53.68
2022-10-26T03:46:02.178Z,53.33
2022-10-26T03:48:29.873Z,53.47
2022-10-26T03:50:59.594Z,53.29
2022-10-26T03:53:27.521Z,53.54
2022-10-26T03:55:56.588Z,53.41
2022-10-26T04:00:53.275Z,53.61
2022-10-26T04:03:20.901Z,53.93
2022-10-26T04:05:48.734Z,53.52
2022-10-26T04:08:16.571Z,53.80
2022-10-26T04:10:45.887Z,53.61
2022-10-26T04:13:13.508Z,53.36
2022-10-26T04:15:41.323Z,53.50
2022-10-26T04:18:09.983Z,53.53
2022-10-26T04:20:39.437Z,53.70
2022-10-26T04:23:07.955Z,53.63
2022-10-26T04:25:35.680Z,53.51
2022-10-26T04:28:05.575Z,53.93
2022-10-26T04:30:35.004Z,53.73
2022-10-26T04:33:03.662Z,53.72
2022-10-26T04:35:31.718Z,53.57
2022-10-26T04:38:04.379Z,53.81
2022-10-26T04:40:33.525Z,54.02
2022-10-26T04:43:01.219Z,53.99
2022-10-26T04:45:31.194Z,54.06
2022-10-26T04:48:10.638Z,54.25
2022-10-26T04:50:39.370Z,53.98
2022-10-26T04:53:10.617Z,54.34
2022-10-26T04:55:38.380Z,53.94
2022-10-26T04:58:06.807Z,54.10
2022-10-26T05:00:35.419Z,54.04
2022-10-26T05:03:06.082Z,53.98
2022-10-26T05:05:35.984Z,54.15
2022-10-26T05:08:04.467Z,54.33
2022-10-26T05:10:32.527Z,54.21
2022-10-26T05:13:02.171Z,53.81
2022-10-26T05:15:30.209Z,54.07
2022-10-26T05:18:00.355Z,53.76
2022-10-26T05:20:31.235Z,53.86
2022-10-26T05:23:01.884Z,54.11
2022-10-26T05:25:32.299Z,54.09
2022-10-26T05:28:03.333Z,53.80
2022-10-26T05:30:32.069Z,53.83
2022-10-26T05:33:04.541Z,53.70
2022-10-26T05:35:32.846Z,54.07
2022-10-26T05:38:06.970Z,53.73
2022-10-26T05:40:34.945Z,53.52
2022-10-26T05:43:02.796Z,53.81
2022-10-26T05:45:30.733Z,53.64
2022-10-26T05:48:01.605Z,53.55
2022-10-26T05:50:30.938Z,53.89
2022-10-26T05:52:58.990Z,53.55
2022-10-26T05:55:26.975Z,53.76
2022-10-26T05:57:54.810Z,53.78
2022-10-26T06:00:26.095Z,53.63
2022-10-26T06:03:24.401Z,53.46
2022-10-26T06:05:58.117Z,53.17
2022-10-26T06:08:28.124Z,53.36
2022-10-26T06:10:59.540Z,53.11
2022-10-26T06:13:27.743Z,53.03
2022-10-26T06:16:10.675Z,53.40
2022-10-26T06:19:02.322Z,53.32
2022-10-26T06:21:32.856Z,52.71
2022-10-26T06:24:33.125Z,52.38
2022-10-26T06:27:19.680Z,51.63
2022-10-26T06:30:00.716Z,51.81
2022-10-26T06:32:29.305Z,52.07
2022-10-26T06:35:15.125Z,52.49
2022-10-26T06:37:45.578Z,52.57
2022-10-26T06:40:15.812Z,52.20
2022-10-26T06:42:44.034Z,52.07
2022-10-26T06:45:16.639Z,51.78
2022-10-26T06:47:57.249Z,51.59
2022-10-26T06:50:42.559Z,51.51
2022-10-26T06:53:37.601Z,51.71
2022-10-26T06:56:05.699Z,51.97
2022-10-26T06:58:36.372Z,51.68
2022-10-26T07:01:04.619Z,51.79
2022-10-26T07:03:32.315Z,51.46
2022-10-26T07:06:01.711Z,51.74
2022-10-26T07:08:32.174Z,51.92
2022-10-26T07:10:59.835Z,51.59
2022-10-26T07:13:28.904Z,51.77
2022-10-26T07:15:56.572Z,51.44
2022-10-26T07:18:24.357Z,51.18
2022-10-26T07:20:52.018Z,52.09
2022-10-26T07:23:19.949Z,51.65
2022-10-26T07:25:47.574Z,51.09
2022-10-26T07:28:15.582Z,51.18
2022-10-26T07:30:43.245Z,50.90
2022-10-26T07:33:13.750Z,51.09
2022-10-26T07:35:42.204Z,51.23
2022-10-26T07:38:09.949Z,51.19
2022-10-26T07:40:38.580Z,51.05
2022-10-26T07:43:06.918Z,51.30
2022-10-26T07:45:35.471Z,51.14
2022-10-26T07:48:03.003Z,51.22
2022-10-26T07:50:30.673Z,51.12
2022-10-26T07:52:59.866Z,51.28
2022-10-26T07:55:28.326Z,51.24
2022-10-26T07:57:56.427Z,51.21
2022-10-26T08:00:24.482Z,51.36
2022-10-26T08:02:52.348Z,51.33
2022-10-26T08:05:20.076Z,51.17
2022-10-26T08:07:49.611Z,51.20
2022-10-26T08:10:17.699Z,51.08
2022-10-26T08:12:45.742Z,51.00
2022-10-26T08:15:13.417Z,50.90
2022-10-26T08:17:41.075Z,51.10
2022-10-26T08:20:09.609Z,50.99
2022-10-26T08:22:37.457Z,50.84
2022-10-26T08:25:05.473Z,50.79
2022-10-26T08:27:33.203Z,51.05
2022-10-26T08:30:01.076Z,50.74
2022-10-26T08:32:28.987Z,51.12
2022-10-26T08:34:56.814Z,50.90
2022-10-26T08:37:24.502Z,50.98
2022-10-26T08:39:55.194Z,50.78
2022-10-26T08:42:30.416Z,50.75
2022-10-26T08:45:07.784Z,50.37
2022-10-26T08:47:43.811Z,50.72
2022-10-26T08:50:43.002Z,50.82
2022-10-26T08:53:44.636Z,50.60
2022-10-26T08:56:18.561Z,51.07
2022-10-26T08:59:27.315Z,50.92
2022-10-26T09:01:55.455Z,51.19
2022-10-26T09:04:28.276Z,51.32
2022-10-26T09:07:21.018Z,51.00
2022-10-26T09:10:04.146Z,51.02
2022-10-26T09:12:55.114Z,51.30
2022-10-26T09:15:48.519Z,50.78
2022-10-26T09:18:40.700Z,50.89
2022-10-26T09:21:17.818Z,50.76
2022-10-26T09:24:02.691Z,50.59
2022-10-26T09:26:30.619Z,51.15
2022-10-26T09:29:03.714Z,51.00
2022-10-26T09:31:42.340Z,50.73
2022-10-26T09:34:39.686Z,50.62
2022-10-26T09:37:28.971Z,50.57
2022-10-26T09:40:06.710Z,50.54
2022-10-26T09:42:42.086Z,50.54
2022-10-26T09:45:15.708Z,50.79
2022-10-26T09:47:53.281Z,50.62
2022-10-26T09:50:26.424Z,50.47
2022-10-26T09:52:54.194Z,50.79
2022-10-26T09:55:23.110Z,50.57
2022-10-26T09:57:54.556Z,50.45
2022-10-26T10:00:24.904Z,50.72
2022-10-26T10:02:55.224Z,50.52
2022-10-26T10:05:49.380Z,50.40
2022-10-26T10:08:27.222Z,50.26
2022-10-26T10:10:58.433Z,50.52
2022-10-26T10:13:29.530Z,49.96
2022-10-26T10:16:21.624Z,49.76
2022-10-26T10:18:59.610Z,50.26
2022-10-26T10:21:41.081Z,49.90
2022-10-26T10:24:32.960Z,49.60
2022-10-26T10:27:04.633Z,49.82
2022-10-26T10:29:50.677Z,49.39
2022-10-26T10:32:37.014Z,49.29
2022-10-26T10:35:24.978Z,49.08
2022-10-26T10:37:53.108Z,49.49
2022-10-26T10:40:26.674Z,49.16
2022-10-26T10:43:12.084Z,48.93
2022-10-26T10:45:41.028Z,48.92
2022-10-26T10:48:27.788Z,48.70
2022-10-26T10:51:13.214Z,49.02
2022-10-26T10:53:50.727Z,49.28
2022-10-26T10:56:47.980Z,49.14
2022-10-26T11:00:03.873Z,49.82
2022-10-26T11:03:09.500Z,50.56
2022-10-26T11:05:43.290Z,50.42
2022-10-26T11:08:36.579Z,49.95
2022-10-26T11:11:09.952Z,49.46
2022-10-26T11:13:49.455Z,49.11
2022-10-26T11:16:26.528Z,48.94
2022-10-26T11:19:23.521Z,48.34
2022-10-26T11:21:55.588Z,48.53
2022-10-26T11:24:23.131Z,47.73
2022-10-26T11:27:04.739Z,47.67
2022-10-26T11:29:51.870Z,48.00
2022-10-26T11:32:24.029Z,47.72
2022-10-26T11:34:57.587Z,47.33
2022-10-26T11:38:27.967Z,47.39
2022-10-26T11:41:31.101Z,47.50
2022-10-26T11:44:22.550Z,48.18
2022-10-26T11:46:57.115Z,48.28
2022-10-26T11:49:35.370Z,48.59
2022-10-26T11:52:22.277Z,48.42
2022-10-26T11:55:02.448Z,48.86
2022-10-26T11:57:33.223Z,48.61
2022-10-26T12:00:05.904Z,49.09
2022-10-26T12:05:22.474Z,49.26
2022-10-26T12:07:56.125Z,49.17
2022-10-26T12:10:26.339Z,49.53
2022-10-26T12:13:20.432Z,49.62
2022-10-26T12:16:04.016Z,49.68
2022-10-26T12:18:56.374Z,49.67
2022-10-26T12:21:28.800Z,49.74
2022-10-26T12:24:22.575Z,50.15
2022-10-26T12:26:51.587Z,49.96
2022-10-26T12:29:38.712Z,49.85
2022-10-26T12:32:31.084Z,50.38
2022-10-26T12:35:01.725Z,50.52
2022-10-26T12:37:37.706Z,51.11
2022-10-26T12:40:33.364Z,51.68
2022-10-26T12:43:23.970Z,53.00
2022-10-26T12:46:26.946Z,52.36
2022-10-26T12:48:56.229Z,51.82
2022-10-26T12:51:44.243Z,53.55
2022-10-26T12:54:41.914Z,53.08
2022-10-26T12:57:47.993Z,53.99
2022-10-26T13:00:21.861Z,53.76
2022-10-26T13:03:27.062Z,55.08
2022-10-26T13:06:28.807Z,55.54
2022-10-26T13:08:59.702Z,54.86
2022-10-26T13:11:35.366Z,54.91
2022-10-26T13:14:05.660Z,54.54
2022-10-26T13:16:34.272Z,54.43
2022-10-26T13:19:01.978Z,54.63
2022-10-26T13:21:29.591Z,54.74
2022-10-26T13:24:05.323Z,54.40
2022-10-26T13:26:53.547Z,54.14
2022-10-26T13:29:30.738Z,55.01
2022-10-26T13:31:59.630Z,54.24
2022-10-26T13:34:31.110Z,54.03
2022-10-26T13:37:05.637Z,53.94
2022-10-26T13:39:38.839Z,54.28
2022-10-26T13:42:12.291Z,54.59
2022-10-26T13:44:53.639Z,55.35
2022-10-26T13:47:41.586Z,55.71
2022-10-26T13:50:19.103Z,55.00
2022-10-26T13:52:51.341Z,54.64
2022-10-26T13:55:19.053Z,54.01
2022-10-26T13:58:14.491Z,54.28
2022-10-26T14:01:04.667Z,54.58
2022-10-26T14:03:32.531Z,54.33
2022-10-26T14:06:00.230Z,54.06
2022-10-26T14:08:27.949Z,54.05
2022-10-26T14:10:59.237Z,54.31
2022-10-26T14:13:29.116Z,54.61
2022-10-26T14:15:58.951Z,55.63
2022-10-26T14:18:29.605Z,55.66
2022-10-26T14:21:00.169Z,55.46
2022-10-26T14:23:38.391Z,55.06
2022-10-26T14:26:06.255Z,55.24
2022-10-26T14:28:45.926Z,55.90
2022-10-26T14:31:34.217Z,55.86
2022-10-26T14:34:05.455Z,57.48
2022-10-26T14:36:50.840Z,58.31
2022-10-26T14:39:27.488Z,57.46
2022-10-26T14:41:55.448Z,58.56
2022-10-26T14:44:25.377Z,58.31
2022-10-26T14:46:53.017Z,58.42
2022-10-26T14:49:23.898Z,58.88
2022-10-26T14:52:00.032Z,58.65
2022-10-26T14:54:29.956Z,58.38
2022-10-26T14:56:58.120Z,57.70
2022-10-26T14:59:29.075Z,57.44
2022-10-26T15:02:20.053Z,58.17
2022-10-26T15:05:35.530Z,58.33
2022-10-26T15:08:03.725Z,57.76
2022-10-26T15:10:49.688Z,58.45
2022-10-26T15:13:33.469Z,57.80
2022-10-26T15:16:08.735Z,57.75
2022-10-26T15:18:38.637Z,58.41
2022-10-26T15:21:21.545Z,58.30
2022-10-26T15:23:50.546Z,58.03
2022-10-26T15:26:19.271Z,58.11
2022-10-26T15:28:49.785Z,58.14
2022-10-26T15:31:17.717Z,57.96
2022-10-26T15:33:51.412Z,58.77
2022-10-26T15:36:30.930Z,58.65
2022-10-26T15:38:59.756Z,58.78
2022-10-26T15:41:33.446Z,58.85
2022-10-26T15:44:06.318Z,58.57
2022-10-26T15:46:39.173Z,58.98
2022-10-26T15:49:08.817Z,58.71
2022-10-26T15:51:38.429Z,58.89
2022-10-26T15:54:06.857Z,58.64
2022-10-26T15:56:34.519Z,58.86
2022-10-26T15:59:02.230Z,58.69
2022-10-26T16:01:30.007Z,59.34
2022-10-26T16:03:57.717Z,59.37
2022-10-26T16:06:34.597Z,59.36
2022-10-26T16:09:05.021Z,59.38
2022-10-26T16:11:33.172Z,59.12
2022-10-26T16:14:03.577Z,59.01
2022-10-26T16:16:31.765Z,58.54
2022-10-26T16:19:18.548Z,58.59
2022-10-26T16:21:47.005Z,58.97
2022-10-26T16:24:14.731Z,59.25
2022-10-26T16:26:42.465Z,59.57
2022-10-26T16:29:10.122Z,58.90
2022-10-26T16:31:37.836Z,57.96
2022-10-26T16:34:05.630Z,57.20
2022-10-26T16:36:34.608Z,57.12
2022-10-26T16:41:32.132Z,56.73
2022-10-26T16:43:59.830Z,56.61
2022-10-26T16:46:27.464Z,55.89
2022-10-26T16:48:55.085Z,56.40
2022-10-26T16:51:26.512Z,56.08
2022-10-26T16:53:55.984Z,56.99
2022-10-26T16:56:29.435Z,57.15
2022-10-26T16:58:57.309Z,57.89
2022-10-26T17:01:25.110Z,58.19
2022-10-26T17:03:53.082Z,58.10
2022-10-26T17:06:21.041Z,57.91
2022-10-26T17:08:48.735Z,58.38
2022-10-26T17:11:18.955Z,58.16
2022-10-26T17:13:47.483Z,58.17
2022-10-26T17:16:18.153Z,58.50
2022-10-26T17:18:47.423Z,58.59
2022-10-26T17:21:17.330Z,59.00
2022-10-26T17:23:45.186Z,58.56
2022-10-26T17:26:14.387Z,58.66
2022-10-26T17:28:42.083Z,58.80
2022-10-26T17:31:15.428Z,59.39
2022-10-26T17:33:44.598Z,59.29
2022-10-26T17:36:14.013Z,59.25
2022-10-26T17:38:42.791Z,59.03
2022-10-26T17:41:13.028Z,59.83
2022-10-26T17:43:41.895Z,60.69
2022-10-26T17:46:20.746Z,63.69
2022-10-26T17:48:48.708Z,62.04
2022-10-26T17:51:18.801Z,60.68
2022-10-26T17:53:47.769Z,59.78
2022-10-26T17:56:24.287Z,60.13
2022-10-26T17:58:55.344Z,60.30
2022-10-26T18:01:23.423Z,60.26
2022-10-26T18:03:51.943Z,60.26
2022-10-26T18:06:20.269Z,60.52
2022-10-26T18:08:48.891Z,60.81
2022-10-26T18:11:26.525Z,60.67
2022-10-26T18:13:56.240Z,60.87
2022-10-26T18:16:25.953Z,60.90
2022-10-26T18:19:02.375Z,61.28
2022-10-26T18:21:34.742Z,61.46
2022-10-26T18:24:02.266Z,61.15
2022-10-26T18:26:31.170Z,61.39
2022-10-26T18:29:00.257Z,61.20
2022-10-26T18:31:29.284Z,61.28
2022-10-26T18:34:00.011Z,61.81
2022-10-26T18:36:28.490Z,61.65
2022-10-26T18:38:56.866Z,60.31
2022-10-26T18:41:25.626Z,59.20
2022-10-26T18:43:55.275Z,60.26
2022-10-26T18:46:30.027Z,60.40
2022-10-26T18:48:59.314Z,61.03
2022-10-26T18:51:31.996Z,60.83
2022-10-26T18:54:02.060Z,60.62
2022-10-26T18:56:29.765Z,63.69
2022-10-26T18:58:59.825Z,61.52
2022-10-26T19:01:35.842Z,60.95
2022-10-26T19:04:09.965Z,61.03
2022-10-26T19:06:40.063Z,61.67
2022-10-26T19:09:10.238Z,61.71
2022-10-26T19:11:38.563Z,62.15
2022-10-26T19:14:12.693Z,61.76
2022-10-26T19:16:45.852Z,61.21
2022-10-26T19:19:16.520Z,61.32
2022-10-26T19:21:46.889Z,60.81
2022-10-26T19:24:22.746Z,60.90
2022-10-26T19:26:53.895Z,61.06
2022-10-26T19:29:21.559Z,60.95
2022-10-26T19:31:52.048Z,60.73
2022-10-26T19:34:19.960Z,61.29
2022-10-26T19:36:47.989Z,61.07
2022-10-26T19:39:17.099Z,60.69
2022-10-26T19:41:46.043Z,60.86
2022-10-26T19:44:14.914Z,61.07
2022-10-26T19:46:43.879Z,60.62
2022-10-26T19:49:13.143Z,60.79
2022-10-26T19:51:40.978Z,60.84
2022-10-26T19:54:08.784Z,60.90
2022-10-26T19:56:38.194Z,60.96
2022-10-26T19:59:07.034Z,60.86
2022-10-26T20:01:35.330Z,60.43
2022-10-26T20:04:04.259Z,60.85
2022-10-26T20:06:32.298Z,61.09
2022-10-26T20:09:00.433Z,60.65
2022-10-26T20:11:28.498Z,60.52
2022-10-26T20:13:56.641Z,60.36
2022-10-26T20:16:24.902Z,60.52
2022-10-26T20:18:52.882Z,60.71
2022-10-26T20:21:20.872Z,60.76
2022-10-26T20:23:48.746Z,60.42
2022-10-26T20:26:19.686Z,60.69
2022-10-26T20:28:49.085Z,60.79
2022-10-26T20:31:16.989Z,60.73
2022-10-26T20:33:44.632Z,60.31
2022-10-26T20:36:12.342Z,60.20
2022-10-26T20:38:40.256Z,59.70
2022-10-26T20:41:12.397Z,59.98
2022-10-26T20:43:41.339Z,59.95
2022-10-26T20:46:20.983Z,60.02
2022-10-26T20:48:49.854Z,59.57
2022-10-26T20:51:44.413Z,59.76
2022-10-26T20:54:32.827Z,60.04
2022-10-26T20:57:02.921Z,60.14
2022-10-26T20:59:44.120Z,59.34
2022-10-26T21:02:12.607Z,59.36
2022-10-26T21:04:40.334Z,59.57
2022-10-26T21:07:08.710Z,59.02
2022-10-26T21:09:36.868Z,59.58
2022-10-26T21:12:05.232Z,59.19
2022-10-26T21:14:36.840Z,59.11
2022-10-26T21:17:04.615Z,58.80
2022-10-26T21:19:32.222Z,59.25
2022-10-26T21:21:59.869Z,59.50
2022-10-26T21:24:27.385Z,59.21
2022-10-26T21:26:55.379Z,59.32
2022-10-26T21:29:23.097Z,59.48
2022-10-26T21:31:50.620Z,59.62
2022-10-26T21:34:18.357Z,59.71
2022-10-26T21:36:45.998Z,59.72
2022-10-26T21:39:13.662Z,59.72
2022-10-26T21:41:41.372Z,59.82
2022-10-26T21:44:23.240Z,59.85
2022-10-26T21:46:58.077Z,60.03
2022-10-26T21:49:26.752Z,60.02
2022-10-26T21:51:54.399Z,60.00
2022-10-26T21:54:21.893Z,59.91
2022-10-26T21:56:49.386Z,59.87
2022-10-26T21:59:16.961Z,60.14
2022-10-26T22:01:44.957Z,59.82
2022-10-26T22:04:12.811Z,59.60
2022-10-26T22:06:40.495Z,59.61
2022-10-26T22:09:08.189Z,60.12
2022-10-26T22:11:35.886Z,60.08
2022-10-26T22:14:03.673Z,59.98
2022-10-26T22:16:32.502Z,59.96
2022-10-26T22:19:05.297Z,60.23
2022-10-26T22:21:42.279Z,60.12
2022-10-26T22:24:10.448Z,60.47
2022-10-26T22:26:39.597Z,60.67
2022-10-26T22:29:07.372Z,59.96
2022-10-26T22:31:38.861Z,60.22
2022-10-26T22:34:13.360Z,59.77
2022-10-26T22:36:41.519Z,59.61
2022-10-26T22:39:09.096Z,60.12
2022-10-26T22:41:37.667Z,60.20
2022-10-26T22:44:05.540Z,59.95
2022-10-26T22:46:33.416Z,59.92
2022-10-26T22:49:02.407Z,59.78
2022-10-26T22:51:33.241Z,59.94
2022-10-26T22:54:02.454Z,59.70
2022-10-26T22:56:32.167Z,59.50
2022-10-26T22:59:00.340Z,59.58
2022-10-26T23:01:33.874Z,59.34
2022-10-26T23:04:01.771Z,59.25
2022-10-26T23:06:31.526Z,59.36
2022-10-26T23:08:59.712Z,59.00
2022-10-26T23:11:28.591Z,58.83
2022-10-26T23:13:58.513Z,58.60
2022-10-26T23:16:27.280Z,58.60
2022-10-26T23:18:55.467Z,58.43
2022-10-26T23:23:58.225Z,58.21
2022-10-26T23:26:25.910Z,58.38
2022-10-26T23:28:53.669Z,58.48
2022-10-26T23:31:24.164Z,58.42
2022-10-26T23:33:53.206Z,58.45
2022-10-26T23:36:21.303Z,58.34
2022-10-26T23:38:49.107Z,58.51
2022-10-26T23:41:16.855Z,58.57
2022-10-26T23:43:44.744Z,58.53
2022-10-26T23:46:12.522Z,58.30
2022-10-26T23:48:40.213Z,58.34
2022-10-26T23:51:07.729Z,58.24
2022-10-26T23:53:35.467Z,58.13
2022-10-26T23:56:03.356Z,58.25
2022-10-26T23:58:31.801Z,58.18
